createdAt,value
2016-11-22T00:00:19.645Z,0
2016-11-22T00:01:19.293Z,0
2016-11-22T00:02:19.559Z,0
2016-11-22T00:03:18.627Z,0
2016-11-22T00:04:19.195Z,0
2016-11-22T00:05:18.854Z,0
2016-11-22T00:06:19.428Z,0
2016-11-22T00:07:19.399Z,0
2016-11-22T00:08:19.360Z,0
2016-11-22T00:09:19.331Z,0
2016-11-22T00:10:18.995Z,0
2016-11-22T00:11:18.960Z,0
2016-11-22T00:12:18.937Z,0
2016-11-22T00:13:18.894Z,0
2016-11-22T00:14:18.854Z,0
2016-11-22T00:15:19.126Z,0
2016-11-22T00:16:18.483Z,0
2016-11-22T00:17:19.070Z,0
2016-11-22T00:18:18.728Z,0
2016-11-22T00:19:18.992Z,0
2016-11-22T00:20:18.964Z,0
2016-11-22T00:21:18.920Z,0
2016-11-22T00:22:18.895Z,0
2016-11-22T00:23:18.867Z,0
2016-11-22T00:24:18.819Z,0
2016-11-22T00:25:18.792Z,0
2016-11-22T00:26:18.758Z,0
2016-11-22T00:27:18.724Z,0
2016-11-22T00:28:18.693Z,0
2016-11-22T00:29:18.659Z,0
2016-11-22T00:30:18.620Z,0
2016-11-22T00:31:17.977Z,0
2016-11-22T00:32:18.252Z,0
2016-11-22T00:33:18.223Z,0
2016-11-22T00:34:18.493Z,0
2016-11-22T00:35:18.148Z,0
2016-11-22T00:36:18.420Z,0
2016-11-22T00:37:18.089Z,0
2016-11-22T00:38:17.748Z,0
2016-11-22T00:39:18.015Z,0
2016-11-22T00:40:17.986Z,0
2016-11-22T00:41:18.256Z,0
2016-11-22T00:42:17.615Z,0
2016-11-22T00:43:17.884Z,0
2016-11-22T00:44:17.855Z,0
2016-11-22T00:45:18.122Z,0
2016-11-22T00:46:18.087Z,0
2016-11-22T00:47:18.075Z,0
2016-11-22T00:48:17.716Z,0
2016-11-22T00:49:17.682Z,0
2016-11-22T00:50:17.649Z,0
2016-11-22T00:51:17.920Z,0
2016-11-22T00:52:17.275Z,0
2016-11-22T00:53:17.254Z,0
2016-11-22T00:54:17.525Z,0
2016-11-22T00:55:17.786Z,0
2016-11-22T00:56:17.446Z,0
2016-11-22T00:57:17.108Z,0
2016-11-22T00:58:17.680Z,0
2016-11-22T00:59:17.653Z,0
2016-11-22T01:00:17.309Z,0
2016-11-22T01:01:17.281Z,0
2016-11-22T01:02:17.554Z,0
2016-11-22T01:03:17.514Z,0
2016-11-22T01:04:16.874Z,0
2016-11-22T01:05:17.147Z,0
2016-11-22T01:06:17.110Z,0
2016-11-22T01:07:16.773Z,0
2016-11-22T01:08:17.347Z,0
2016-11-22T01:09:17.310Z,0
2016-11-22T01:10:16.675Z,0
2016-11-22T01:11:17.241Z,0
2016-11-22T01:12:16.911Z,0
2016-11-22T01:13:17.205Z,0
2016-11-22T01:14:16.836Z,0
2016-11-22T01:15:16.809Z,0
2016-11-22T01:16:17.075Z,0
2016-11-22T01:17:16.749Z,0
2016-11-22T01:18:17.009Z,0
2016-11-22T01:19:16.974Z,0
2016-11-22T01:20:16.669Z,0
2016-11-22T01:21:16.303Z,0
2016-11-22T01:22:16.870Z,0
2016-11-22T01:23:16.841Z,0
2016-11-22T01:24:16.509Z,0
2016-11-22T01:25:16.475Z,0
2016-11-22T01:26:16.753Z,0
2016-11-22T01:27:16.401Z,0
2016-11-22T01:28:16.371Z,0
2016-11-22T01:29:16.641Z,0
2016-11-22T01:30:16.303Z,0
2016-11-22T01:31:16.270Z,0
2016-11-22T01:32:16.541Z,0
2016-11-22T01:33:16.501Z,0
2016-11-22T01:34:16.471Z,0
2016-11-22T01:35:16.135Z,0
2016-11-22T01:36:16.404Z,0
2016-11-22T01:37:16.073Z,0
2016-11-22T01:38:16.335Z,0
2016-11-22T01:39:16.300Z,0
2016-11-22T01:40:16.268Z,0
2016-11-22T01:41:16.239Z,0
2016-11-22T01:42:15.900Z,0
2016-11-22T01:43:16.176Z,0
2016-11-22T01:44:15.831Z,0
2016-11-22T01:45:15.196Z,0
2016-11-22T01:46:15.762Z,0
2016-11-22T01:47:16.050Z,0
2016-11-22T01:48:16.008Z,0
2016-11-22T01:49:15.964Z,0
2016-11-22T01:50:15.930Z,0
2016-11-22T01:51:15.897Z,0
2016-11-22T01:52:15.868Z,0
2016-11-22T01:53:15.831Z,0
2016-11-22T01:54:15.499Z,0
2016-11-22T01:55:15.460Z,0
2016-11-22T01:56:15.432Z,0
2016-11-22T01:57:15.695Z,0
2016-11-22T01:58:15.073Z,0
2016-11-22T01:59:15.626Z,0
2016-11-22T02:00:15.301Z,0
2016-11-22T02:01:15.263Z,0
2016-11-22T02:02:15.228Z,0
2016-11-22T02:03:15.498Z,0
2016-11-22T02:04:15.465Z,0
2016-11-22T02:05:15.432Z,0
2016-11-22T02:06:15.096Z,0
2016-11-22T02:07:15.352Z,0
2016-11-22T02:08:15.328Z,0
2016-11-22T02:09:15.295Z,0
2016-11-22T02:10:14.955Z,0
2016-11-22T02:11:15.224Z,0
2016-11-22T02:12:15.184Z,0
2016-11-22T02:13:15.195Z,0
2016-11-22T02:14:14.825Z,0
2016-11-22T02:15:15.086Z,0
2016-11-22T02:16:15.055Z,0
2016-11-22T02:17:14.717Z,0
2016-11-22T02:18:14.993Z,0
2016-11-22T02:19:14.956Z,0
2016-11-22T02:20:14.919Z,0
2016-11-22T02:21:14.580Z,0
2016-11-22T02:22:14.852Z,0
2016-11-22T02:23:14.518Z,0
2016-11-22T02:24:14.882Z,0
2016-11-22T02:25:14.753Z,0
2016-11-22T02:26:14.413Z,0
2016-11-22T02:27:14.378Z,0
2016-11-22T02:28:14.650Z,0
2016-11-22T02:29:14.016Z,0
2016-11-22T02:30:14.583Z,0
2016-11-22T02:31:13.943Z,0
2016-11-22T02:32:14.512Z,0
2016-11-22T02:33:13.875Z,0
2016-11-22T02:34:14.133Z,0
2016-11-22T02:35:14.408Z,0
2016-11-22T02:36:14.069Z,0
2016-11-22T02:37:14.353Z,0
2016-11-22T02:38:13.996Z,0
2016-11-22T02:39:14.266Z,0
2016-11-22T02:40:13.627Z,0
2016-11-22T02:41:13.894Z,0
2016-11-22T02:42:14.160Z,0
2016-11-22T02:43:13.826Z,0
2016-11-22T02:44:14.091Z,0
2016-11-22T02:45:13.454Z,0
2016-11-22T02:46:14.029Z,0
2016-11-22T02:47:13.988Z,0
2016-11-22T02:48:13.952Z,0
2016-11-22T02:49:13.927Z,0
2016-11-22T02:50:13.893Z,0
2016-11-22T02:51:13.851Z,0
2016-11-22T02:52:13.516Z,0
2016-11-22T02:53:13.780Z,0
2016-11-22T02:54:13.456Z,0
2016-11-22T02:55:13.712Z,0
2016-11-22T02:56:13.684Z,0
2016-11-22T02:57:13.342Z,0
2016-11-22T02:58:13.308Z,0
2016-11-22T02:59:13.279Z,0
2016-11-22T03:00:13.238Z,0
2016-11-22T03:01:12.906Z,0
2016-11-22T03:02:13.169Z,0
2016-11-22T03:03:13.440Z,0
2016-11-22T03:04:13.103Z,0
2016-11-22T03:05:13.369Z,0
2016-11-22T03:06:13.027Z,0
2016-11-22T03:07:12.999Z,0
2016-11-22T03:08:13.271Z,0
2016-11-22T03:09:13.240Z,0
2016-11-22T03:10:12.890Z,0
2016-11-22T03:11:13.153Z,0
2016-11-22T03:12:13.121Z,0
2016-11-22T03:13:12.783Z,0
2016-11-22T03:14:13.056Z,0
2016-11-22T03:15:13.025Z,0
2016-11-22T03:16:12.989Z,0
2016-11-22T03:17:12.957Z,0
2016-11-22T03:18:12.607Z,0
2016-11-22T03:19:12.879Z,0
2016-11-22T03:20:12.540Z,0
2016-11-22T03:21:12.509Z,0
2016-11-22T03:22:12.772Z,0
2016-11-22T03:23:12.733Z,0
2016-11-22T03:24:12.090Z,0
2016-11-22T03:25:12.393Z,0
2016-11-22T03:26:12.320Z,0
2016-11-22T03:27:12.298Z,0
2016-11-22T03:28:12.557Z,0
2016-11-22T03:29:12.520Z,0
2016-11-22T03:30:12.487Z,0
2016-11-22T03:31:12.452Z,0
2016-11-22T03:32:12.415Z,0
2016-11-22T03:33:12.077Z,0
2016-11-22T03:34:12.346Z,0
2016-11-22T03:35:12.307Z,0
2016-11-22T03:36:11.977Z,0
2016-11-22T03:37:12.234Z,0
2016-11-22T03:38:12.199Z,0
2016-11-22T03:39:11.584Z,0
2016-11-22T03:40:12.130Z,0
2016-11-22T03:41:12.096Z,0
2016-11-22T03:42:11.750Z,0
2016-11-22T03:43:11.417Z,0
2016-11-22T03:44:11.986Z,0
2016-11-22T03:45:11.643Z,0
2016-11-22T03:46:11.921Z,0
2016-11-22T03:47:11.579Z,0
2016-11-22T03:48:11.538Z,0
2016-11-22T03:49:11.811Z,0
2016-11-22T03:50:11.773Z,0
2016-11-22T03:51:11.737Z,0
2016-11-22T03:52:11.395Z,0
2016-11-22T03:53:11.664Z,0
2016-11-22T03:54:11.023Z,0
2016-11-22T03:55:11.588Z,0
2016-11-22T03:56:11.553Z,0
2016-11-22T03:57:11.516Z,0
2016-11-22T03:58:10.906Z,0
2016-11-22T03:59:11.436Z,0
2016-11-22T04:00:11.106Z,0
2016-11-22T04:01:11.066Z,0
2016-11-22T04:02:11.332Z,0
2016-11-22T04:03:11.300Z,0
2016-11-22T04:04:10.956Z,0
2016-11-22T04:05:11.235Z,0
2016-11-22T04:06:10.892Z,0
2016-11-22T04:07:11.151Z,0
2016-11-22T04:08:10.537Z,0
2016-11-22T04:09:11.073Z,0
2016-11-22T04:10:10.734Z,0
2016-11-22T04:11:11.001Z,0
2016-11-22T04:12:10.973Z,0
2016-11-22T04:13:10.622Z,0
2016-11-22T04:14:10.589Z,0
2016-11-22T04:15:10.554Z,0
2016-11-22T04:16:10.511Z,0
2016-11-22T04:17:10.187Z,0
2016-11-22T04:18:10.441Z,0
2016-11-22T04:19:10.412Z,0
2016-11-22T04:20:10.067Z,0
2016-11-22T04:21:10.338Z,0
2016-11-22T04:22:10.301Z,0
2016-11-22T04:23:10.559Z,0
2016-11-22T04:24:10.222Z,0
2016-11-22T04:25:09.881Z,0
2016-11-22T04:26:10.147Z,0
2016-11-22T04:27:09.812Z,0
2016-11-22T04:28:10.390Z,0
2016-11-22T04:29:10.041Z,0
2016-11-22T04:30:10.306Z,0
2016-11-22T04:31:09.963Z,0
2016-11-22T04:32:10.232Z,0
2016-11-22T04:33:09.288Z,0
2016-11-22T04:34:09.853Z,0
2016-11-22T04:35:10.117Z,0
2016-11-22T04:36:10.089Z,0
2016-11-22T04:37:09.751Z,0
2016-11-22T04:38:09.406Z,0
2016-11-22T04:39:09.973Z,0
2016-11-22T04:40:09.940Z,0
2016-11-22T04:41:09.901Z,0
2016-11-22T04:42:09.863Z,0
2016-11-22T04:43:09.519Z,0
2016-11-22T04:44:09.788Z,0
2016-11-22T04:45:09.446Z,0
2016-11-22T04:46:08.809Z,0
2016-11-22T04:47:09.385Z,0
2016-11-22T04:48:09.643Z,0
2016-11-22T04:49:09.305Z,0
2016-11-22T04:50:09.268Z,0
2016-11-22T04:51:09.530Z,0
2016-11-22T04:52:09.495Z,0
2016-11-22T04:53:09.164Z,0
2016-11-22T04:54:09.425Z,0
2016-11-22T04:55:09.393Z,0
2016-11-22T04:56:09.047Z,0
2016-11-22T04:57:09.012Z,0
2016-11-22T04:58:09.275Z,0
2016-11-22T04:59:08.936Z,0
2016-11-22T05:00:09.201Z,0
2016-11-22T05:01:08.862Z,0
2016-11-22T05:02:08.838Z,0
2016-11-22T05:03:09.088Z,0
2016-11-22T05:04:09.050Z,0
2016-11-22T05:05:08.415Z,0
2016-11-22T05:06:08.981Z,0
2016-11-22T05:07:08.942Z,0
2016-11-22T05:08:08.604Z,0
2016-11-22T05:09:08.864Z,0
2016-11-22T05:10:08.825Z,0
2016-11-22T05:11:08.503Z,0
2016-11-22T05:12:08.781Z,0
2016-11-22T05:13:08.416Z,0
2016-11-22T05:14:08.680Z,0
2016-11-22T05:15:08.644Z,0
2016-11-22T05:16:08.614Z,0
2016-11-22T05:17:08.578Z,0
2016-11-22T05:18:08.232Z,0
2016-11-22T05:19:08.189Z,0
2016-11-22T05:20:08.160Z,0
2016-11-22T05:21:08.421Z,0
2016-11-22T05:22:08.413Z,0
2016-11-22T05:23:08.044Z,0
2016-11-22T05:24:08.011Z,0
2016-11-22T05:25:07.973Z,0
2016-11-22T05:26:07.933Z,0
2016-11-22T05:27:07.896Z,0
2016-11-22T05:28:08.157Z,0
2016-11-22T05:29:07.519Z,0
2016-11-22T05:30:07.811Z,0
2016-11-22T05:31:07.441Z,0
2016-11-22T05:32:08.001Z,0
2016-11-22T05:33:07.979Z,0
2016-11-22T05:34:07.635Z,0
2016-11-22T05:35:07.593Z,0
2016-11-22T05:36:07.856Z,0
2016-11-22T05:37:07.819Z,0
2016-11-22T05:38:07.783Z,0
2016-11-22T05:39:07.745Z,0
2016-11-22T05:40:07.410Z,0
2016-11-22T05:41:07.084Z,0
2016-11-22T05:42:07.333Z,0
2016-11-22T05:43:07.290Z,0
2016-11-22T05:44:07.258Z,0
2016-11-22T05:45:07.517Z,0
2016-11-22T05:46:07.479Z,0
2016-11-22T05:47:07.441Z,0
2016-11-22T05:48:07.405Z,0
2016-11-22T05:49:07.070Z,0
2016-11-22T05:50:07.333Z,0
2016-11-22T05:51:06.693Z,0
2016-11-22T05:52:07.256Z,0
2016-11-22T05:53:06.918Z,0
2016-11-22T05:54:07.188Z,0
2016-11-22T05:55:07.157Z,0
2016-11-22T05:56:07.107Z,0
2016-11-22T05:57:07.068Z,0
2016-11-22T05:58:06.122Z,0
2016-11-22T05:59:07.002Z,0
2016-11-22T06:00:06.951Z,0
2016-11-22T06:01:06.914Z,0
2016-11-22T06:02:06.874Z,0
2016-11-22T06:03:06.841Z,0
2016-11-22T06:04:06.196Z,0
2016-11-22T06:05:06.464Z,0
2016-11-22T06:06:06.422Z,0
2016-11-22T06:07:06.396Z,0
2016-11-22T06:08:06.655Z,0
2016-11-22T06:09:06.011Z,0
2016-11-22T06:10:06.003Z,0
2016-11-22T06:11:06.234Z,0
2016-11-22T06:12:06.194Z,0
2016-11-22T06:13:06.159Z,0
2016-11-22T06:14:05.847Z,0
2016-11-22T06:15:06.084Z,0
2016-11-22T06:16:06.050Z,0
2016-11-22T06:17:06.316Z,0
2016-11-22T06:18:05.972Z,0
2016-11-22T06:19:05.626Z,0
2016-11-22T06:20:06.195Z,0
2016-11-22T06:21:05.849Z,0
2016-11-22T06:22:05.815Z,0
2016-11-22T06:23:06.084Z,0
2016-11-22T06:24:06.052Z,0
2016-11-22T06:25:05.708Z,0
2016-11-22T06:26:05.665Z,0
2016-11-22T06:27:05.930Z,0
2016-11-22T06:28:05.887Z,0
2016-11-22T06:29:05.543Z,0
2016-11-22T06:30:05.811Z,0
2016-11-22T06:31:05.773Z,0
2016-11-22T06:32:05.436Z,0
2016-11-22T06:33:05.398Z,0
2016-11-22T06:34:05.663Z,0
2016-11-22T06:35:05.620Z,0
2016-11-22T06:36:05.580Z,0
2016-11-22T06:37:05.242Z,0
2016-11-22T06:38:05.203Z,0
2016-11-22T06:39:05.465Z,0
2016-11-22T06:40:05.430Z,0
2016-11-22T06:41:05.392Z,0
2016-11-22T06:42:05.354Z,0
2016-11-22T06:43:05.016Z,0
2016-11-22T06:44:04.979Z,0
2016-11-22T06:45:04.940Z,0
2016-11-22T06:46:04.897Z,5
2016-11-22T06:47:05.159Z,5
2016-11-22T06:48:04.825Z,5
2016-11-22T06:49:05.086Z,5
2016-11-22T06:50:04.772Z,5
2016-11-22T06:51:05.003Z,5
2016-11-22T06:52:04.994Z,5
2016-11-22T06:53:04.636Z,5
2016-11-22T06:54:04.893Z,5
2016-11-22T06:55:04.259Z,10
2016-11-22T06:56:04.820Z,10
2016-11-22T06:57:04.794Z,10
2016-11-22T06:58:04.737Z,10
2016-11-22T06:59:03.797Z,10
2016-11-22T07:00:04.364Z,10
2016-11-22T07:01:04.334Z,15
2016-11-22T07:02:04.286Z,15
2016-11-22T07:03:04.254Z,15
2016-11-22T07:04:04.508Z,15
2016-11-22T07:05:04.475Z,15
2016-11-22T07:06:04.434Z,15
2016-11-22T07:07:04.395Z,15
2016-11-22T07:08:03.760Z,15
2016-11-22T07:09:04.320Z,15
2016-11-22T07:10:04.276Z,15
2016-11-22T07:11:03.638Z,15
2016-11-22T07:12:03.298Z,20
2016-11-22T07:13:04.162Z,20
2016-11-22T07:14:03.827Z,20
2016-11-22T07:15:04.088Z,20
2016-11-22T07:16:03.753Z,25
2016-11-22T07:17:03.719Z,25
2016-11-22T07:18:03.377Z,25
2016-11-22T07:19:03.932Z,25
2016-11-22T07:20:03.594Z,25
2016-11-22T07:21:03.854Z,25
2016-11-22T07:22:03.517Z,25
2016-11-22T07:23:03.485Z,30
2016-11-22T07:24:03.743Z,30
2016-11-22T07:25:03.702Z,30
2016-11-22T07:26:03.667Z,35
2016-11-22T07:27:03.626Z,35
2016-11-22T07:28:03.286Z,35
2016-11-22T07:29:03.252Z,35
2016-11-22T07:30:02.908Z,40
2016-11-22T07:31:03.169Z,40
2016-11-22T07:32:02.838Z,40
2016-11-22T07:33:03.093Z,45
2016-11-22T07:34:03.060Z,45
2016-11-22T07:35:03.327Z,45
2016-11-22T07:36:03.284Z,45
2016-11-22T07:37:03.242Z,45
2016-11-22T07:38:03.223Z,45
2016-11-22T07:39:03.168Z,45
2016-11-22T07:40:03.139Z,45
2016-11-22T07:41:02.492Z,45
2016-11-22T07:42:03.055Z,50
2016-11-22T07:43:03.020Z,50
2016-11-22T07:44:02.982Z,55
2016-11-22T07:45:02.941Z,55
2016-11-22T07:46:02.901Z,55
2016-11-22T07:47:02.564Z,55
2016-11-22T07:48:02.223Z,60
2016-11-22T07:49:02.795Z,60
2016-11-22T07:50:02.445Z,60
2016-11-22T07:51:02.739Z,60
2016-11-22T07:52:02.378Z,60
2016-11-22T07:53:02.641Z,60
2016-11-22T07:54:02.294Z,60
2016-11-22T07:55:01.955Z,60
2016-11-22T07:56:02.232Z,60
2016-11-22T07:57:02.482Z,60
2016-11-22T07:58:02.150Z,60
2016-11-22T07:59:02.099Z,60
2016-11-22T08:00:02.379Z,60
2016-11-22T08:01:02.334Z,60
2016-11-22T08:02:01.686Z,55
2016-11-22T08:03:02.253Z,55
2016-11-22T08:04:01.911Z,55
2016-11-22T08:05:02.175Z,55
2016-11-22T08:06:01.532Z,55
2016-11-22T08:07:01.799Z,60
2016-11-22T08:08:01.462Z,60
2016-11-22T08:09:01.727Z,60
2016-11-22T08:10:01.686Z,60
2016-11-22T08:11:01.947Z,60
2016-11-22T08:12:01.918Z,60
2016-11-22T08:13:01.568Z,55
2016-11-22T08:14:01.531Z,55
2016-11-22T08:15:01.797Z,55
2016-11-22T08:16:01.453Z,55
2016-11-22T08:17:01.715Z,50
2016-11-22T08:18:01.382Z,50
2016-11-22T08:19:01.642Z,50
2016-11-22T08:20:01.606Z,45
2016-11-22T08:21:01.570Z,45
2016-11-22T08:22:01.227Z,45
2016-11-22T08:23:01.493Z,45
2016-11-22T08:24:01.153Z,45
2016-11-22T08:25:01.412Z,45
2016-11-22T08:26:01.378Z,45
2016-11-22T08:27:01.037Z,45
2016-11-22T08:28:01.300Z,45
2016-11-22T08:29:00.961Z,45
2016-11-22T08:30:01.220Z,45
2016-11-22T08:31:01.213Z,45
2016-11-22T08:32:01.148Z,45
2016-11-22T08:33:00.803Z,45
2016-11-22T08:34:01.075Z,45
2016-11-22T08:35:01.039Z,45
2016-11-22T08:36:00.697Z,45
2016-11-22T08:37:00.657Z,50
2016-11-22T08:38:00.647Z,50
2016-11-22T08:39:00.275Z,50
2016-11-22T08:40:00.846Z,50
2016-11-22T08:41:00.509Z,50
2016-11-22T08:42:00.774Z,50
2016-11-22T08:43:00.427Z,50
2016-11-22T08:44:00.098Z,50
2016-11-22T08:45:00.363Z,50
2016-11-22T08:46:00.624Z,50
2016-11-22T08:47:00.580Z,50
2016-11-22T08:47:59.946Z,50
2016-11-22T08:48:59.907Z,50
2016-11-22T08:49:59.863Z,50
2016-11-22T08:50:59.833Z,50
2016-11-22T08:52:00.395Z,50
2016-11-22T08:53:00.054Z,50
2016-11-22T08:54:00.022Z,50
2016-11-22T08:54:59.683Z,50
2016-11-22T08:55:59.942Z,50
2016-11-22T08:56:59.603Z,50
2016-11-22T08:57:59.881Z,50
2016-11-22T08:59:00.132Z,45
2016-11-22T09:00:00.092Z,45
2016-11-22T09:00:59.750Z,45
2016-11-22T09:02:00.051Z,45
2016-11-22T09:02:59.374Z,45
2016-11-22T09:03:59.945Z,45
2016-11-22T09:04:59.625Z,45
2016-11-22T09:05:59.569Z,45
2016-11-22T09:06:59.831Z,45
2016-11-22T09:07:59.800Z,45
2016-11-22T09:08:59.457Z,45
2016-11-22T09:09:59.716Z,45
2016-11-22T09:10:59.688Z,50
2016-11-22T09:11:59.644Z,50
2016-11-22T09:12:59.335Z,50
2016-11-22T09:13:59.271Z,50
2016-11-22T09:14:59.530Z,50
2016-11-22T09:15:58.592Z,55
2016-11-22T09:16:59.155Z,55
2016-11-22T09:17:59.125Z,55
2016-11-22T09:18:59.387Z,55
2016-11-22T09:19:59.349Z,55
2016-11-22T09:20:59.361Z,55
2016-11-22T09:21:59.272Z,55
2016-11-22T09:22:59.233Z,55
2016-11-22T09:23:59.193Z,55
2016-11-22T09:24:59.157Z,55
2016-11-22T09:25:58.816Z,55
2016-11-22T09:26:58.782Z,55
2016-11-22T09:27:58.745Z,55
2016-11-22T09:28:58.710Z,55
2016-11-22T09:29:58.673Z,55
2016-11-22T09:30:58.636Z,55
2016-11-22T09:31:58.904Z,55
2016-11-22T09:32:58.862Z,60
2016-11-22T09:33:58.824Z,60
2016-11-22T09:34:58.792Z,60
2016-11-22T09:35:58.751Z,60
2016-11-22T09:36:58.426Z,60
2016-11-22T09:37:58.680Z,60
2016-11-22T09:38:58.350Z,60
2016-11-22T09:39:58.294Z,60
2016-11-22T09:40:58.562Z,60
2016-11-22T09:41:57.923Z,60
2016-11-22T09:42:58.491Z,60
2016-11-22T09:43:58.480Z,60
2016-11-22T09:44:58.414Z,60
2016-11-22T09:45:57.773Z,60
2016-11-22T09:46:58.039Z,60
2016-11-22T09:47:58.305Z,60
2016-11-22T09:48:57.964Z,60
2016-11-22T09:49:57.925Z,60
2016-11-22T09:50:58.191Z,60
2016-11-22T09:51:58.162Z,60
2016-11-22T09:52:57.819Z,65
2016-11-22T09:53:58.083Z,65
2016-11-22T09:54:57.746Z,65
2016-11-22T09:55:58.011Z,65
2016-11-22T09:56:57.669Z,65
2016-11-22T09:57:57.935Z,65
2016-11-22T09:58:57.593Z,70
2016-11-22T09:59:56.954Z,70
2016-11-22T10:00:57.823Z,70
2016-11-22T10:01:57.480Z,70
2016-11-22T10:02:57.445Z,70
2016-11-22T10:03:57.716Z,70
2016-11-22T10:04:57.671Z,70
2016-11-22T10:05:57.639Z,70
2016-11-22T10:06:57.597Z,75
2016-11-22T10:07:57.269Z,75
2016-11-22T10:08:57.521Z,75
2016-11-22T10:09:57.186Z,75
2016-11-22T10:10:57.147Z,75
2016-11-22T10:11:57.149Z,75
2016-11-22T10:12:57.079Z,80
2016-11-22T10:13:57.345Z,80
2016-11-22T10:14:57.002Z,80
2016-11-22T10:15:57.266Z,85
2016-11-22T10:16:56.969Z,90
2016-11-22T10:17:57.205Z,90
2016-11-22T10:18:56.857Z,95
2016-11-22T10:19:57.122Z,95
2016-11-22T10:20:57.081Z,95
2016-11-22T10:21:57.046Z,100
2016-11-22T10:22:56.407Z,100
2016-11-22T10:23:56.971Z,105
2016-11-22T10:24:56.949Z,105
2016-11-22T10:25:56.911Z,105
2016-11-22T10:26:56.873Z,110
2016-11-22T10:27:56.527Z,110
2016-11-22T10:28:56.484Z,110
2016-11-22T10:29:56.767Z,110
2016-11-22T10:30:56.723Z,110
2016-11-22T10:31:56.389Z,110
2016-11-22T10:32:56.339Z,110
2016-11-22T10:33:56.601Z,110
2016-11-22T10:34:56.576Z,110
2016-11-22T10:35:56.545Z,110
2016-11-22T10:36:56.497Z,110
2016-11-22T10:37:56.150Z,110
2016-11-22T10:38:56.485Z,110
2016-11-22T10:39:55.781Z,115
2016-11-22T10:40:56.049Z,115
2016-11-22T10:41:56.315Z,120
2016-11-22T10:42:56.281Z,120
2016-11-22T10:43:56.244Z,125
2016-11-22T10:44:56.206Z,125
2016-11-22T10:45:56.169Z,130
2016-11-22T10:46:56.130Z,130
2016-11-22T10:47:56.141Z,130
2016-11-22T10:48:56.064Z,130
2016-11-22T10:49:55.722Z,130
2016-11-22T10:50:55.383Z,130
2016-11-22T10:51:55.951Z,130
2016-11-22T10:52:55.618Z,125
2016-11-22T10:53:55.574Z,125
2016-11-22T10:54:55.847Z,120
2016-11-22T10:55:55.503Z,115
2016-11-22T10:56:55.468Z,110
2016-11-22T10:57:55.738Z,105
2016-11-22T10:58:55.726Z,100
2016-11-22T10:59:55.670Z,100
2016-11-22T11:00:55.623Z,95
2016-11-22T11:01:55.585Z,95
2016-11-22T11:02:55.249Z,95
2016-11-22T11:03:54.937Z,95
2016-11-22T11:04:54.584Z,90
2016-11-22T11:05:55.471Z,90
2016-11-22T11:06:55.418Z,90
2016-11-22T11:07:55.380Z,90
2016-11-22T11:08:55.335Z,90
2016-11-22T11:09:55.301Z,90
2016-11-22T11:10:55.271Z,90
2016-11-22T11:11:55.233Z,90
2016-11-22T11:12:54.618Z,90
2016-11-22T11:13:55.153Z,90
2016-11-22T11:14:54.822Z,90
2016-11-22T11:15:55.087Z,90
2016-11-22T11:16:54.749Z,90
2016-11-22T11:17:54.724Z,90
2016-11-22T11:18:55.005Z,90
2016-11-22T11:19:54.632Z,90
2016-11-22T11:20:54.618Z,90
2016-11-22T11:21:54.272Z,90
2016-11-22T11:22:54.833Z,90
2016-11-22T11:23:54.801Z,90
2016-11-22T11:24:54.769Z,90
2016-11-22T11:25:54.159Z,90
2016-11-22T11:26:54.691Z,90
2016-11-22T11:27:54.353Z,95
2016-11-22T11:28:54.321Z,95
2016-11-22T11:29:54.283Z,95
2016-11-22T11:30:54.240Z,95
2016-11-22T11:31:54.510Z,95
2016-11-22T11:32:54.483Z,100
2016-11-22T11:33:54.440Z,100
2016-11-22T11:34:54.101Z,100
2016-11-22T11:35:54.064Z,100
2016-11-22T11:36:54.033Z,100
2016-11-22T11:37:54.300Z,105
2016-11-22T11:38:53.662Z,105
2016-11-22T11:39:54.223Z,100
2016-11-22T11:40:53.889Z,100
2016-11-22T11:41:53.851Z,100
2016-11-22T11:42:54.120Z,100
2016-11-22T11:43:54.084Z,100
2016-11-22T11:44:54.041Z,100
2016-11-22T11:45:53.708Z,100
2016-11-22T11:46:53.976Z,100
2016-11-22T11:47:53.937Z,100
2016-11-22T11:48:53.304Z,100
2016-11-22T11:49:53.866Z,100
2016-11-22T11:50:53.527Z,100
2016-11-22T11:51:53.194Z,105
2016-11-22T11:52:53.758Z,105
2016-11-22T11:53:53.731Z,105
2016-11-22T11:54:53.387Z,105
2016-11-22T11:55:53.051Z,110
2016-11-22T11:56:52.720Z,110
2016-11-22T11:57:53.597Z,110
2016-11-22T11:58:53.576Z,110
2016-11-22T11:59:53.206Z,110
2016-11-22T12:00:53.477Z,110
2016-11-22T12:01:53.435Z,110
2016-11-22T12:02:53.403Z,110
2016-11-22T12:03:53.067Z,115
2016-11-22T12:04:53.030Z,115
2016-11-22T12:05:53.296Z,120
2016-11-22T12:06:52.361Z,120
2016-11-22T12:07:52.927Z,120
2016-11-22T12:08:52.906Z,125
2016-11-22T12:09:52.863Z,130
2016-11-22T12:10:52.818Z,135
2016-11-22T12:11:52.775Z,135
2016-11-22T12:12:53.044Z,140
2016-11-22T12:13:53.009Z,140
2016-11-22T12:14:52.977Z,145
2016-11-22T12:15:52.641Z,145
2016-11-22T12:16:52.594Z,150
2016-11-22T12:17:52.871Z,155
2016-11-22T12:18:52.232Z,160
2016-11-22T12:19:52.797Z,165
2016-11-22T12:20:52.760Z,170
2016-11-22T12:21:52.722Z,175
2016-11-22T12:22:52.692Z,180
2016-11-22T12:23:52.650Z,180
2016-11-22T12:24:52.615Z,180
2016-11-22T12:25:52.275Z,180
2016-11-22T12:26:52.245Z,180
2016-11-22T12:27:51.910Z,175
2016-11-22T12:28:51.874Z,175
2016-11-22T12:29:52.168Z,170
2016-11-22T12:30:52.410Z,165
2016-11-22T12:31:52.064Z,160
2016-11-22T12:32:52.342Z,160
2016-11-22T12:33:52.000Z,155
2016-11-22T12:34:51.662Z,155
2016-11-22T12:35:52.246Z,150
2016-11-22T12:36:52.194Z,150
2016-11-22T12:37:51.855Z,145
2016-11-22T12:38:51.517Z,145
2016-11-22T12:39:52.105Z,140
2016-11-22T12:40:51.453Z,140
2016-11-22T12:41:51.713Z,140
2016-11-22T12:42:51.983Z,135
2016-11-22T12:43:51.339Z,130
2016-11-22T12:44:51.602Z,130
2016-11-22T12:45:51.876Z,130
2016-11-22T12:46:51.546Z,125
2016-11-22T12:47:51.813Z,125
2016-11-22T12:48:51.768Z,125
2016-11-22T12:49:51.443Z,120
2016-11-22T12:50:51.702Z,120
2016-11-22T12:51:51.667Z,115
2016-11-22T12:52:51.324Z,115
2016-11-22T12:53:51.601Z,110
2016-11-22T12:54:51.254Z,110
2016-11-22T12:55:50.924Z,115
2016-11-22T12:56:51.491Z,110
2016-11-22T12:57:51.150Z,110
2016-11-22T12:58:50.521Z,110
2016-11-22T12:59:51.387Z,110
2016-11-22T13:00:51.366Z,105
2016-11-22T13:01:51.321Z,105
2016-11-22T13:02:50.969Z,105
2016-11-22T13:03:50.937Z,105
2016-11-22T13:04:50.599Z,100
2016-11-22T13:05:50.866Z,100
2016-11-22T13:06:50.836Z,100
2016-11-22T13:07:51.475Z,95
2016-11-22T13:08:51.063Z,95
2016-11-22T13:09:50.749Z,95
2016-11-22T13:10:50.998Z,95
2016-11-22T13:11:50.657Z,95
2016-11-22T13:12:50.654Z,95
2016-11-22T13:13:50.287Z,95
2016-11-22T13:14:50.851Z,95
2016-11-22T13:15:50.541Z,90
2016-11-22T13:16:50.776Z,85
2016-11-22T13:17:50.746Z,85
2016-11-22T13:18:50.404Z,80
2016-11-22T13:19:50.673Z,75
2016-11-22T13:20:50.674Z,70
2016-11-22T13:21:50.609Z,70
2016-11-22T13:22:50.266Z,65
2016-11-22T13:23:49.943Z,65
2016-11-22T13:24:50.496Z,65
2016-11-22T13:25:50.458Z,65
2016-11-22T13:26:50.423Z,65
2016-11-22T13:27:50.397Z,60
2016-11-22T13:28:49.754Z,60
2016-11-22T13:29:50.318Z,60
2016-11-22T13:30:50.303Z,60
2016-11-22T13:31:50.251Z,60
2016-11-22T13:32:50.215Z,60
2016-11-22T13:33:49.872Z,55
2016-11-22T13:34:50.138Z,55
2016-11-22T13:35:49.810Z,55
2016-11-22T13:36:49.465Z,55
2016-11-22T13:37:49.732Z,55
2016-11-22T13:38:50.001Z,50
2016-11-22T13:39:49.372Z,50
2016-11-22T13:40:49.736Z,50
2016-11-22T13:41:49.596Z,50
2016-11-22T13:42:49.859Z,50
2016-11-22T13:43:49.227Z,50
2016-11-22T13:44:49.795Z,50
2016-11-22T13:45:49.459Z,45
2016-11-22T13:46:49.108Z,45
2016-11-22T13:47:49.684Z,45
2016-11-22T13:48:49.662Z,45
2016-11-22T13:49:49.619Z,45
2016-11-22T13:50:49.267Z,45
2016-11-22T13:51:49.576Z,45
2016-11-22T13:52:49.500Z,45
2016-11-22T13:53:49.163Z,45
2016-11-22T13:54:49.139Z,45
2016-11-22T13:55:49.096Z,45
2016-11-22T13:56:49.057Z,45
2016-11-22T13:57:49.041Z,45
2016-11-22T13:58:48.998Z,45
2016-11-22T13:59:49.281Z,45
2016-11-22T14:00:48.616Z,45
2016-11-22T14:01:48.881Z,45
2016-11-22T14:02:49.150Z,45
2016-11-22T14:03:48.510Z,45
2016-11-22T14:04:49.079Z,45
2016-11-22T14:05:48.737Z,45
2016-11-22T14:06:49.005Z,45
2016-11-22T14:07:48.664Z,45
2016-11-22T14:08:48.638Z,45
2016-11-22T14:09:48.928Z,45
2016-11-22T14:10:48.267Z,45
2016-11-22T14:11:47.924Z,45
2016-11-22T14:12:48.508Z,45
2016-11-22T14:13:48.457Z,45
2016-11-22T14:14:48.751Z,45
2016-11-22T14:15:48.382Z,45
2016-11-22T14:16:48.357Z,40
2016-11-22T14:17:48.608Z,40
2016-11-22T14:18:48.580Z,40
2016-11-22T14:19:48.580Z,40
2016-11-22T14:20:48.506Z,40
2016-11-22T14:21:48.473Z,35
2016-11-22T14:22:48.127Z,35
2016-11-22T14:23:48.400Z,35
2016-11-22T14:24:48.059Z,35